KALI/ALI METAR and TAF weather

Enter ICAO airport designator
Station Type Date Time Source
KALI METAR 2020/07/11 20:53 UTC NOAA

KALI 112053Z AUTO 14010G17KT 10SM CLR 38/23 A2995 RMK AO2 SLP138 T03830228 58018 $


Station Type Date Time Source
KALI Decoded METAR 2020/07/11 20:53 UTC NOAA

ALICE INTERNATIONAL AIRPORT, TX, United States (KALI) 27-44N 098-01W 53M
Jul 11, 2020 - 04:53 PM EDT / 2020.07.11 2053 UTC
Wind: from the SE (140 degrees) at 12 MPH (10 KT) gusting to 20 MPH (17 KT):0
Visibility: 10 mile(s):0
Sky conditions: clear
Temperature: 100.9 F (38.3 C)
Heat index: 112.1 F (44.5 C):1
Dew Point: 73.0 F (22.8 C)
Relative Humidity: 41%
Pressure (altimeter): 29.95 in. Hg (1014 hPa)
Pressure tendency: 0.05 inches (1.8 hPa) lower than three hours ago
ob: KALI 112053Z AUTO 14010G17KT 10SM CLR 38/23 A2995 RMK AO2 SLP138 T03830228 58018
cycle: 21

Station Type Date Time Source
KALI TAF 2020/07/11 18:39 UTC NOAA

TAF KALI 111736Z 1118/1218 17010KT P6SM SCT040
FM112200 14012G18KT P6SM SCT050
FM120300 14010KT P6SM SCT012
FM121000 18003KT 5SM BR SCT006 BKN012
TEMPO 1210/1212 2SM BR BKN006
FM121300 18006KT P6SM BKN025
FM121600 18012KT P6SM SCT035

Example: see airport list